Time;durP1;ratioP1;P1;durP2;ratioP2;P2;SDS_P1;SDS_P2;PMS_P1;PMS_P2;Temp;Humidity;BMP_temperature;BMP_pressure;BME280_temperature;BME280_humidity;BME280_pressure;Samples;Min_cycle;Max_cycle;Signal;HPM_P1;HPM_P2
2022/08/10 00:00:21;;;;;;;3.42;1.33;;;20.80;75.60;;;;;;5010155;28;20081;-76
2022/08/10 00:02:47;;;;;;;8.50;1.38;;;20.70;76.10;;;;;;5010284;28;20441;-76
2022/08/10 00:05:13;;;;;;;3.35;1.50;;;20.80;76.00;;;;;;5011422;28;20100;-76
2022/08/10 00:07:38;;;;;;;2.90;0.90;;;20.70;76.60;;;;;;5012027;28;20081;-77
2022/08/10 00:10:04;;;;;;;3.13;1.02;;;20.70;77.00;;;;;;5011540;28;20156;-77
2022/08/10 00:12:30;;;;;;;3.13;1.45;;;20.60;77.80;;;;;;5011313;28;20479;-77
2022/08/10 00:14:57;;;;;;;6.57;1.27;;;20.60;78.30;;;;;;5010551;28;20038;-78
2022/08/10 00:17:23;;;;;;;6.03;1.40;;;20.50;78.40;;;;;;5011390;28;20134;-78
2022/08/10 00:19:49;;;;;;;4.68;1.10;;;20.50;78.90;;;;;;5011973;28;20152;-77
2022/08/10 00:22:15;;;;;;;6.95;1.38;;;20.50;79.30;;;;;;5011208;28;20460;-75
2022/08/10 00:24:40;;;;;;;2.30;1.20;;;20.40;79.30;;;;;;5011438;28;20034;-78
2022/08/10 00:27:06;;;;;;;4.43;1.25;;;20.50;79.70;;;;;;5011129;28;20419;-77
2022/08/10 00:29:32;;;;;;;4.85;1.33;;;20.40;80.50;;;;;;5010920;28;20034;-76
2022/08/10 00:31:57;;;;;;;2.63;1.30;;;20.40;80.40;;;;;;5011474;28;20019;-76
2022/08/10 00:34:23;;;;;;;4.93;1.40;;;20.30;80.70;;;;;;5011203;28;20026;-78
2022/08/10 00:36:49;;;;;;;6.45;1.45;;;20.30;81.30;;;;;;5009897;28;20027;-75
2022/08/10 00:39:15;;;;;;;2.08;1.08;;;20.20;82.10;;;;;;5010828;28;20041;-75
2022/08/10 00:41:40;;;;;;;3.70;1.40;;;20.10;83.30;;;;;;5010621;28;20045;-75
2022/08/10 00:44:06;;;;;;;3.65;1.23;;;20.10;83.50;;;;;;5011057;28;20116;-75
2022/08/10 00:46:32;;;;;;;2.30;1.65;;;20.10;84.00;;;;;;5010236;28;20022;-75
2022/08/10 00:48:58;;;;;;;4.97;1.40;;;20.00;84.90;;;;;;5009646;28;20030;-76
2022/08/10 00:51:24;;;;;;;5.57;1.77;;;20.00;84.60;;;;;;5026142;28;20372;-76
2022/08/10 00:53:49;;;;;;;2.33;1.40;;;20.00;85.30;;;;;;5010639;28;20435;-75
2022/08/10 00:56:15;;;;;;;2.78;1.30;;;19.90;85.80;;;;;;5010727;28;20101;-76
2022/08/10 00:58:42;;;;;;;5.32;1.17;;;19.90;86.70;;;;;;5010357;28;20038;-76
2022/08/10 01:01:07;;;;;;;5.30;1.95;;;19.90;86.50;;;;;;5010824;28;20440;-76
2022/08/10 01:03:33;;;;;;;4.22;1.45;;;19.90;86.80;;;;;;5010804;28;20041;-77
2022/08/10 01:06:04;;;;;;;7.32;1.60;;;19.80;87.30;;;;;;5010956;28;20034;-77
2022/08/10 01:09:16;;;;;;;5.43;1.58;;;19.80;88.10;;;;;;5010471;28;20350;-76
2022/08/10 01:12:05;;;;;;;2.45;1.30;;;19.70;88.70;;;;;;5009639;28;20041;-76
2022/08/10 01:14:43;;;;;;;4.32;1.50;;;19.70;88.50;;;;;;5010636;28;20452;-77
2022/08/10 01:17:19;;;;;;;2.92;1.45;;;19.70;88.70;;;;;;5010592;28;20116;-75
2022/08/10 01:19:54;;;;;;;5.38;1.70;;;19.70;89.30;;;;;;5010965;28;20021;-75
2022/08/10 01:22:50;;;;;;;5.68;1.75;;;19.60;89.70;;;;;;5026141;28;20180;-75
2022/08/10 01:25:27;;;;;;;2.33;1.15;;;19.60;90.10;;;;;;5010524;28;20030;-76
2022/08/10 01:28:21;;;;;;;5.55;1.40;;;19.60;90.10;;;;;;5025876;28;20034;-75
2022/08/10 01:30:51;;;;;;;4.30;1.60;;;19.60;90.40;;;;;;5010479;28;20044;-77
2022/08/10 01:33:24;;;;;;;2.97;1.45;;;19.60;90.40;;;;;;5010691;28;20393;-75
2022/08/10 01:35:55;;;;;;;2.88;1.67;;;19.50;90.70;;;;;;5018362;28;20033;-75
2022/08/10 01:38:42;;;;;;;4.05;1.35;;;19.50;90.70;;;;;;5029000;28;20455;-75
2022/08/10 01:41:31;;;;;;;2.25;1.63;;;19.40;90.80;;;;;;5029933;28;20033;-75
2022/08/10 01:44:11;;;;;;;2.03;1.45;;;19.40;91.10;;;;;;5033310;28;20440;-76
2022/08/10 01:46:46;;;;;;;3.28;1.63;;;19.40;91.20;;;;;;5054423;28;20060;-75
2022/08/10 01:49:14;;;;;;;4.95;1.80;;;19.30;91.30;;;;;;5053662;28;20040;-75
2022/08/10 01:51:50;;;;;;;3.85;1.70;;;19.30;91.30;;;;;;5052580;28;20021;-76
2022/08/10 01:54:19;;;;;;;4.45;1.70;;;19.20;91.70;;;;;;5053726;28;20067;-76
2022/08/10 01:56:49;;;;;;;4.00;1.40;;;19.20;91.80;;;;;;5053651;28;20478;-77
2022/08/10 01:59:19;;;;;;;2.85;1.20;;;19.10;92.00;;;;;;5053699;28;20477;-76
2022/08/10 02:01:49;;;;;;;3.22;1.52;;;19.10;91.90;;;;;;5052619;28;20428;-75
2022/08/10 02:04:18;;;;;;;4.30;1.60;;;19.10;91.90;;;;;;5052381;28;20360;-76
2022/08/10 02:06:47;;;;;;;2.50;1.50;;;19.00;92.10;;;;;;5053775;28;20105;-76
2022/08/10 02:09:18;;;;;;;4.40;1.17;;;19.10;92.10;;;;;;5053501;28;20467;-75
2022/08/10 02:11:49;;;;;;;4.22;1.75;;;19.00;92.20;;;;;;5053398;28;20332;-77
2022/08/10 02:14:17;;;;;;;2.42;1.50;;;18.90;92.40;;;;;;5053497;28;20017;-75
2022/08/10 02:16:47;;;;;;;3.58;1.60;;;18.90;92.60;;;;;;5053881;28;20459;-76
2022/08/10 02:19:17;;;;;;;4.28;1.60;;;18.90;92.70;;;;;;5053225;28;20450;-76
2022/08/10 02:21:45;;;;;;;3.28;1.73;;;18.80;92.80;;;;;;5052255;28;20410;-76
2022/08/10 02:24:13;;;;;;;2.70;1.50;;;18.80;92.90;;;;;;5053227;28;20037;-77
2022/08/10 02:26:43;;;;;;;4.50;1.80;;;18.70;93.10;;;;;;5053213;28;20037;-76
2022/08/10 02:29:12;;;;;;;4.55;1.48;;;18.80;93.10;;;;;;5053013;28;20082;-76
2022/08/10 02:31:39;;;;;;;4.07;1.63;;;18.70;93.30;;;;;;5053468;28;20021;-76
2022/08/10 02:34:08;;;;;;;4.40;1.77;;;18.70;93.30;;;;;;5052970;28;20028;-76
2022/08/10 02:36:35;;;;;;;3.00;1.70;;;18.70;93.40;;;;;;5052988;28;20025;-76
2022/08/10 02:39:04;;;;;;;3.60;1.30;;;18.60;93.50;;;;;;5052890;28;20678;-77
2022/08/10 02:41:39;;;;;;;5.38;1.95;;;18.60;93.50;;;;;;5052790;28;20109;-75
2022/08/10 02:44:30;;;;;;;3.55;1.60;;;18.60;93.50;;;;;;5052116;28;20025;-76
2022/08/10 02:47:06;;;;;;;1.70;1.42;;;18.60;93.50;;;;;;5043578;28;20114;-76
2022/08/10 02:49:41;;;;;;;2.92;2.22;;;18.60;93.60;;;;;;5033069;28;20038;-77
2022/08/10 02:52:46;;;;;;;7.38;3.20;;;18.50;93.90;;;;;;5032944;28;20112;-76
2022/08/10 02:55:20;;;;;;;6.65;1.80;;;18.60;93.90;;;;;;5031387;28;20492;-77
2022/08/10 02:57:53;;;;;;;7.82;2.03;;;18.50;94.00;;;;;;5031728;28;20108;-77
2022/08/10 03:00:19;;;;;;;5.82;1.73;;;18.50;94.00;;;;;;5032460;28;20053;-75
2022/08/10 03:02:48;;;;;;;3.75;1.92;;;18.50;94.10;;;;;;5033245;28;20091;-75
2022/08/10 03:05:16;;;;;;;5.22;2.17;;;18.50;94.00;;;;;;5031364;28;20112;-76
2022/08/10 03:07:54;;;;;;;2.60;1.67;;;18.50;94.10;;;;;;5033284;28;20384;-76
2022/08/10 03:10:23;;;;;;;2.55;1.85;;;18.40;94.20;;;;;;5032599;28;20067;-76
2022/08/10 03:12:54;;;;;;;7.97;2.30;;;18.40;94.40;;;;;;5032559;28;20045;-74
2022/08/10 03:15:21;;;;;;;5.13;2.08;;;18.30;94.50;;;;;;5032423;28;20475;-75
2022/08/10 03:17:48;;;;;;;2.88;1.77;;;18.20;94.60;;;;;;5031513;28;20027;-75
2022/08/10 03:20:16;;;;;;;4.82;2.20;;;18.30;94.60;;;;;;5031999;28;20028;-75
2022/08/10 03:22:43;;;;;;;3.13;2.03;;;18.30;94.70;;;;;;5032752;28;20044;-74
2022/08/10 03:25:12;;;;;;;3.40;1.90;;;18.30;94.50;;;;;;5032210;28;20030;-75
2022/08/10 03:27:38;;;;;;;;;;;18.30;94.70;;;;;;5032537;28;20030;-75
2022/08/10 03:30:04;;;;;;;7.70;1.90;;;18.20;94.70;;;;;;5032167;28;20342;-73
2022/08/10 03:32:32;;;;;;;4.97;1.95;;;18.10;94.70;;;;;;5031976;28;20033;-75
2022/08/10 03:34:58;;;;;;;3.90;2.00;;;18.20;94.70;;;;;;5031507;28;20025;-75
2022/08/10 03:37:26;;;;;;;4.68;1.90;;;18.00;95.00;;;;;;5031849;28;20034;-74
2022/08/10 03:39:53;;;;;;;2.58;1.75;;;18.00;95.10;;;;;;5031692;28;20034;-74
2022/08/10 03:42:21;;;;;;;6.10;2.10;;;18.00;94.80;;;;;;5031764;28;20037;-74
2022/08/10 03:44:49;;;;;;;5.68;2.17;;;18.00;94.80;;;;;;5032322;28;20136;-75
2022/08/10 03:47:17;;;;;;;3.67;2.03;;;17.90;95.30;;;;;;5030963;28;20043;-76
2022/08/10 03:49:47;;;;;;;3.33;1.85;;;17.90;95.20;;;;;;5032122;28;20021;-76
2022/08/10 03:52:14;;;;;;;9.38;2.33;;;17.90;95.10;;;;;;5030633;28;20021;-75
2022/08/10 03:54:41;;;;;;;7.67;2.53;;;18.00;95.10;;;;;;5031639;28;20422;-76
2022/08/10 03:57:07;;;;;;;3.95;2.20;;;17.90;95.00;;;;;;5031668;28;20045;-75
2022/08/10 03:59:35;;;;;;;3.15;2.00;;;17.80;95.20;;;;;;5031038;28;20029;-75
2022/08/10 04:02:02;;;;;;;2.05;1.70;;;17.80;95.20;;;;;;5030673;28;20156;-76
2022/08/10 04:04:28;;;;;;;6.35;1.85;;;17.70;95.50;;;;;;5031438;28;20076;-75
2022/08/10 04:06:56;;;;;;;3.08;2.20;;;17.70;95.60;;;;;;5030561;28;20037;-76
2022/08/10 04:09:26;;;;;;;5.50;1.90;;;17.80;95.50;;;;;;5031355;28;20099;-76
2022/08/10 04:11:52;;;;;;;5.47;1.95;;;17.80;95.60;;;;;;5031465;28;20050;-76
2022/08/10 04:14:18;;;;;;;6.22;2.28;;;17.70;95.70;;;;;;5031345;28;20673;-77
2022/08/10 04:16:44;;;;;;;2.97;2.15;;;17.70;95.70;;;;;;5031654;28;20022;-76
2022/08/10 04:19:11;;;;;;;5.13;2.60;;;17.80;95.60;;;;;;5031518;28;20108;-78
2022/08/10 04:21:41;;;;;;;5.68;2.55;;;17.80;95.70;;;;;;5031301;28;20523;-76
2022/08/10 04:24:11;;;;;;;6.72;2.35;;;17.80;95.70;;;;;;5030220;28;20061;-76
2022/08/10 04:26:38;;;;;;;5.75;2.42;;;17.80;95.60;;;;;;5031458;28;20029;-78
2022/08/10 04:29:04;;;;;;;4.70;2.42;;;17.80;95.90;;;;;;5031611;28;20100;-77
2022/08/10 04:31:31;;;;;;;4.40;2.00;;;17.80;95.70;;;;;;5051112;28;20025;-77
2022/08/10 04:33:58;;;;;;;4.72;2.10;;;17.80;95.80;;;;;;5035698;28;20068;-76
2022/08/10 04:36:24;;;;;;;8.85;2.72;;;17.80;95.90;;;;;;5030703;28;20463;-77
2022/08/10 04:38:51;;;;;;;4.25;2.28;;;17.80;95.80;;;;;;5029840;28;20065;-76
2022/08/10 04:41:17;;;;;;;10.55;3.33;;;17.80;95.70;;;;;;5030728;28;20509;-77
2022/08/10 04:43:44;;;;;;;8.25;3.00;;;17.80;95.90;;;;;;5031374;28;20033;-76
2022/08/10 04:46:10;;;;;;;9.52;2.50;;;17.90;95.80;;;;;;5030751;28;20026;-76
2022/08/10 04:48:36;;;;;;;10.15;3.20;;;17.90;95.80;;;;;;5030640;28;20030;-76
2022/08/10 04:51:02;;;;;;;5.82;2.67;;;17.90;95.80;;;;;;5029464;28;20450;-76
2022/08/10 04:53:28;;;;;;;5.90;2.50;;;17.90;95.90;;;;;;5030477;28;20033;-76
2022/08/10 04:55:54;;;;;;;6.13;2.30;;;18.00;95.70;;;;;;5031179;28;20096;-76
2022/08/10 04:58:20;;;;;;;8.90;2.65;;;17.90;95.80;;;;;;5029345;28;20674;-76
2022/08/10 05:00:46;;;;;;;10.63;2.63;;;17.90;95.90;;;;;;5030103;28;20046;-75
2022/08/10 05:03:12;;;;;;;5.45;2.47;;;17.90;96.10;;;;;;5030166;28;20414;-76
2022/08/10 05:05:37;;;;;;;5.50;2.47;;;17.90;95.90;;;;;;5030458;28;20206;-79
2022/08/10 05:08:03;;;;;;;7.60;2.67;;;18.00;95.90;;;;;;5031252;28;20104;-76
2022/08/10 05:10:29;;;;;;;6.68;2.67;;;18.10;95.80;;;;;;5030721;28;20025;-77
2022/08/10 05:12:55;;;;;;;4.78;2.17;;;18.10;95.90;;;;;;5029129;28;20471;-74
2022/08/10 05:15:23;;;;;;;7.05;2.90;;;18.10;96.30;;;;;;5030176;28;20455;-75
2022/08/10 05:17:49;;;;;;;;;;;18.20;96.20;;;;;;5032035;28;20039;-74
2022/08/10 05:20:15;;;;;;;8.35;3.08;;;18.30;96.20;;;;;;5034012;28;20267;-76
2022/08/10 05:22:45;;;;;;;5.75;2.90;;;18.30;95.90;;;;;;5033824;28;20041;-77
2022/08/10 05:25:18;;;;;;;16.67;7.50;;;18.30;95.50;;;;;;5034819;28;20384;-79
2022/08/10 05:27:46;;;;;;;4.97;3.10;;;18.30;95.70;;;;;;5034518;28;20040;-80
2022/08/10 05:30:16;;;;;;;5.53;2.58;;;18.40;95.50;;;;;;5036120;28;20033;-87
2022/08/10 05:32:42;;;;;;;6.70;2.85;;;18.50;95.50;;;;;;5036005;28;20041;-84
2022/08/10 05:35:08;;;;;;;9.77;3.10;;;18.50;95.30;;;;;;5037493;28;20109;-87
2022/08/10 05:37:34;;;;;;;8.45;2.78;;;18.50;95.10;;;;;;5036598;28;20035;-83
2022/08/10 05:40:04;;;;;;;30.27;21.23;;;18.60;95.60;;;;;;5034703;28;20466;-80
2022/08/10 05:42:30;;;;;;;10.10;3.42;;;18.60;95.60;;;;;;5034844;28;20041;-80
2022/08/10 05:44:56;;;;;;;40.35;28.75;;;18.60;95.30;;;;;;5033409;28;20029;-82
2022/08/10 05:47:22;;;;;;;10.95;7.63;;;18.70;95.40;;;;;;5033917;28;20049;-80
2022/08/10 05:49:49;;;;;;;10.73;4.25;;;18.80;95.30;;;;;;5036594;28;20013;-78
2022/08/10 05:52:16;;;;;;;5.25;2.88;;;18.80;95.10;;;;;;5034290;28;20029;-83
2022/08/10 05:54:42;;;;;;;8.05;3.10;;;18.90;95.20;;;;;;5034863;28;20578;-83
2022/08/10 05:57:11;;;;;;;7.45;2.80;;;18.90;94.70;;;;;;5034451;28;20446;-83
2022/08/10 05:59:45;;;;;;;9.98;6.85;;;19.00;94.70;;;;;;5033711;28;20585;-81
2022/08/10 06:02:27;;;;;;;7.93;4.43;;;19.00;94.70;;;;;;5033775;28;20252;-83
2022/08/10 06:04:55;;;;;;;6.57;3.30;;;19.00;94.60;;;;;;5035304;28;20029;-85
2022/08/10 06:07:26;;;;;;;8.15;3.58;;;19.00;94.50;;;;;;5034708;28;20029;-81
2022/08/10 06:09:54;;;;;;;9.10;2.95;;;19.00;94.30;;;;;;5033376;28;20175;-83
2022/08/10 06:12:22;;;;;;;5.78;2.95;;;19.10;94.30;;;;;;5034966;28;20473;-84
2022/08/10 06:15:01;;;;;;;5.22;2.83;;;19.10;94.20;;;;;;5035642;28;20025;-81
2022/08/10 06:17:30;;;;;;;6.32;2.72;;;19.20;94.10;;;;;;5033758;28;20033;-83
2022/08/10 06:20:01;;;;;;;7.28;3.05;;;19.30;93.90;;;;;;5038876;28;20407;-86
2022/08/10 06:22:32;;;;;;;6.13;2.67;;;19.30;93.90;;;;;;5036641;28;20033;-91
2022/08/10 06:25:00;;;;;;;6.20;2.55;;;19.30;93.90;;;;;;5033232;28;20112;-81
2022/08/10 06:27:26;;;;;;;7.93;2.97;;;19.30;94.10;;;;;;5035474;28;20034;-89
2022/08/10 06:29:54;;;;;;;7.28;3.58;;;19.40;94.00;;;;;;5034763;28;20052;-86
2022/08/10 06:32:24;;;;;;;5.75;2.58;;;19.40;93.90;;;;;;5037895;28;20025;-94
2022/08/10 06:34:54;;;;;;;10.35;2.63;;;19.50;93.70;;;;;;5035992;28;20455;-85
2022/08/10 06:37:24;;;;;;;4.28;2.88;;;19.50;93.60;;;;;;5034754;28;20103;-86
2022/08/10 06:39:51;;;;;;;9.85;3.08;;;19.60;93.60;;;;;;5035375;28;20091;-88
2022/08/10 06:42:39;;;;;;;8.00;2.50;;;19.60;93.60;;;;;;5033349;28;20052;-82
2022/08/10 06:45:10;;;;;;;9.32;3.47;;;19.70;93.30;;;;;;5034178;28;20475;-83
2022/08/10 06:47:46;;;;;;;5.45;2.53;;;19.70;93.10;;;;;;5034720;28;20038;-80
2022/08/10 06:50:17;;;;;;;14.15;3.50;;;19.70;92.90;;;;;;5032473;28;20099;-79
2022/08/10 06:52:47;;;;;;;6.25;2.65;;;19.80;93.10;;;;;;5033993;28;20025;-82
2022/08/10 06:55:13;;;;;;;4.30;2.20;;;19.80;92.90;;;;;;5032884;28;20095;-85
2022/08/10 06:57:41;;;;;;;14.18;2.70;;;19.90;93.00;;;;;;5033894;28;20034;-81
2022/08/10 07:00:09;;;;;;;4.00;2.08;;;19.90;92.90;;;;;;5033462;28;20098;-84
2022/08/10 07:02:47;;;;;;;7.35;2.53;;;19.90;92.80;;;;;;5034060;28;20037;-82
2022/08/10 07:05:21;;;;;;;5.95;2.40;;;20.00;92.60;;;;;;5034642;28;20042;-85
2022/08/10 07:07:50;;;;;;;8.23;2.05;;;20.10;92.70;;;;;;5033594;28;20028;-85
2022/08/10 07:10:18;;;;;;;4.75;2.35;;;20.20;92.30;;;;;;5034671;28;20055;-90
2022/08/10 07:12:47;;;;;;;9.40;2.80;;;20.20;92.50;;;;;;5033112;28;20044;-81
2022/08/10 07:15:16;;;;;;;7.85;2.42;;;20.30;92.10;;;;;;5033152;28;20037;-80
2022/08/10 07:17:44;;;;;;;7.50;2.65;;;20.40;92.00;;;;;;5032380;28;20053;-85
2022/08/10 07:20:15;;;;;;;8.75;2.88;;;20.40;91.70;;;;;;5036122;28;20032;-90
2022/08/10 07:22:47;;;;;;;6.13;2.50;;;20.60;91.50;;;;;;5037127;28;20349;-93
2022/08/10 07:25:17;;;;;;;3.95;2.38;;;20.70;91.30;;;;;;5036841;28;20368;-91
2022/08/10 07:27:44;;;;;;;5.68;3.03;;;20.80;91.50;;;;;;5033624;28;20026;-85
2022/08/10 07:30:10;;;;;;;9.10;2.45;;;20.90;91.20;;;;;;5032437;28;20434;-81
2022/08/10 07:32:38;;;;;;;6.78;2.83;;;20.90;91.20;;;;;;5034199;28;20049;-85
2022/08/10 07:35:04;;;;;;;7.45;2.50;;;21.10;91.60;;;;;;5033235;28;20021;-82
2022/08/10 07:37:35;;;;;;;8.25;4.13;;;21.20;91.30;;;;;;5055662;28;20036;-89
2022/08/10 07:40:02;;;;;;;9.00;2.63;;;21.30;91.20;;;;;;5072074;28;20036;-89
2022/08/10 07:42:30;;;;;;;16.63;3.30;;;21.40;91.10;;;;;;5055026;28;20037;-94
2022/08/10 07:44:56;;;;;;;7.40;2.55;;;21.50;90.80;;;;;;5057061;28;20479;-90
2022/08/10 07:47:27;;;;;;;8.15;4.18;;;21.50;90.80;;;;;;5055256;28;20039;-94
2022/08/10 07:49:55;;;;;;;4.75;2.50;;;21.60;90.60;;;;;;5056364;28;20029;-85
2022/08/10 07:52:22;;;;;;;8.27;2.65;;;21.70;90.40;;;;;;5051617;28;20340;-84
2022/08/10 07:54:51;;;;;;;5.63;2.50;;;21.80;90.30;;;;;;5052519;28;20045;-88
2022/08/10 07:57:24;;;;;;;5.90;2.10;;;21.90;90.00;;;;;;5049630;28;20134;-93
2022/08/10 08:00:01;;;;;;;13.43;3.35;;;22.00;89.30;;;;;;5055902;28;20040;-92
2022/08/10 08:02:52;;;;;;;7.90;2.60;;;22.20;89.30;;;;;;5054029;28;20048;-96
2022/08/10 08:05:27;;;;;;;6.28;2.13;;;22.30;89.00;;;;;;5050451;28;20025;-94
2022/08/10 08:08:03;;;;;;;5.45;2.83;;;22.40;89.70;;;;;;5052771;22;20396;-93
2022/08/10 08:10:30;;;;;;;14.50;2.70;;;22.50;88.90;;;;;;5015208;28;20125;-84
2022/08/10 08:12:58;;;;;;;8.07;2.65;;;22.70;87.90;;;;;;5010724;28;20034;-89
2022/08/10 08:15:25;;;;;;;6.15;2.42;;;22.80;88.20;;;;;;4997154;28;20117;-86
2022/08/10 08:17:52;;;;;;;6.40;2.60;;;23.10;87.30;;;;;;5014460;28;20230;-96
2022/08/10 08:20:20;;;;;;;4.70;2.20;;;23.30;86.60;;;;;;5000412;28;20377;-89
2022/08/10 08:22:49;;;;;;;4.85;2.67;;;23.50;85.60;;;;;;5003824;28;20053;-88
2022/08/10 08:25:18;;;;;;;6.32;2.20;;;23.90;85.30;;;;;;5010171;28;20054;-85
2022/08/10 08:27:51;;;;;;;7.15;2.70;;;24.50;83.50;;;;;;5016063;28;20031;-95
2022/08/10 08:30:18;;;;;;;6.07;2.33;;;25.30;80.90;;;;;;4993025;28;20054;-88
2022/08/10 08:33:04;;;;;;;3.33;2.08;;;26.30;82.60;;;;;;4974296;28;20035;-87
2022/08/10 08:35:31;;;;;;;6.68;2.80;;;27.60;77.20;;;;;;4990734;28;20602;-84
2022/08/10 08:37:59;;;;;;;9.93;2.92;;;28.60;71.30;;;;;;4977226;28;20023;-93
2022/08/10 08:40:36;;;;;;;4.30;2.10;;;29.60;73.80;;;;;;4976202;28;20031;-86
2022/08/10 08:43:27;;;;;;;5.65;1.83;;;30.50;68.70;;;;;;4977613;28;20049;-88
2022/08/10 08:46:15;;;;;;;6.57;1.98;;;31.50;66.70;;;;;;4998236;28;20030;-88
2022/08/10 08:49:22;;;;;;;5.93;1.83;;;31.80;60.10;;;;;;5007784;28;20085;-85
2022/08/10 08:51:51;;;;;;;6.55;1.92;;;32.60;57.70;;;;;;4988413;28;20034;-88
2022/08/10 08:54:54;;;;;;;6.05;2.05;;;32.90;56.10;;;;;;4989767;28;20031;-87
2022/08/10 08:57:51;;;;;;;5.20;2.17;;;33.20;56.70;;;;;;5006811;28;20031;-88
2022/08/10 09:00:40;;;;;;;6.10;1.67;;;33.70;55.20;;;;;;5006888;28;20039;-86
2022/08/10 09:03:29;;;;;;;3.35;2.00;;;34.40;54.50;;;;;;4981779;28;20051;-90
2022/08/10 09:06:01;;;;;;;2.65;1.70;;;35.10;52.10;;;;;;4980992;28;20030;-89
2022/08/10 09:08:41;;;;;;;6.00;2.95;;;35.00;50.30;;;;;;5000529;28;20046;-88
2022/08/10 09:11:37;;;;;;;7.97;2.30;;;35.00;50.10;;;;;;4991206;28;20034;-82
2022/08/10 09:14:19;;;;;;;8.55;2.53;;;35.20;49.40;;;;;;4979994;28;20031;-91
2022/08/10 09:16:54;;;;;;;4.22;2.10;;;35.40;49.20;;;;;;4982400;28;20041;-83
2022/08/10 09:19:42;;;;;;;5.05;2.00;;;35.90;47.70;;;;;;4983632;28;20030;-93
2022/08/10 09:22:32;;;;;;;4.93;2.10;;;36.10;47.20;;;;;;4982757;28;20050;-86
2022/08/10 09:25:08;;;;;;;5.45;2.20;;;35.80;47.40;;;;;;4986902;28;20031;-84
2022/08/10 09:27:40;;;;;;;5.72;2.17;;;36.20;47.60;;;;;;4981769;28;20034;-87
2022/08/10 09:30:09;;;;;;;6.32;2.25;;;37.10;46.20;;;;;;4988367;28;20042;-88
2022/08/10 09:32:52;;;;;;;3.53;1.52;;;38.00;43.90;;;;;;4992709;28;20111;-90
2022/08/10 09:35:23;;;;;;;6.95;2.03;;;38.10;43.50;;;;;;4988144;28;20053;-84
2022/08/10 09:38:19;;;;;;;5.60;1.90;;;37.30;42.80;;;;;;4978429;28;20050;-87
2022/08/10 09:40:51;;;;;;;4.80;1.80;;;38.20;42.80;;;;;;4977113;28;20039;-85
2022/08/10 09:43:27;;;;;;;16.45;2.72;;;37.30;40.70;;;;;;4981819;28;20031;-92
2022/08/10 09:46:11;;;;;;;47.88;4.05;;;36.80;41.90;;;;;;4975382;28;20027;-82
2022/08/10 09:49:13;;;;;;;4.82;2.47;;;37.10;42.50;;;;;;4992884;28;20492;-86
2022/08/10 09:51:42;;;;;;;9.02;4.30;;;36.80;40.90;;;;;;4973752;28;20074;-80
2022/08/10 09:54:49;;;;;;;6.55;2.25;;;37.80;41.00;;;;;;4992603;28;20122;-86
2022/08/10 09:57:35;;;;;;;4.15;1.77;;;37.20;40.90;;;;;;4990447;28;20449;-85
2022/08/10 10:00:10;;;;;;;5.18;2.15;;;36.80;43.00;;;;;;4964529;28;20035;-79
2022/08/10 10:03:08;;;;;;;6.70;2.60;;;36.90;40.30;;;;;;4977590;28;20347;-89
2022/08/10 10:05:48;;;;;;;4.38;1.80;;;37.40;40.40;;;;;;4955842;28;20020;-83
2022/08/10 10:08:22;;;;;;;5.60;1.77;;;37.60;39.30;;;;;;5004223;28;20047;-93
2022/08/10 10:11:23;;;;;;;3.25;2.10;;;37.90;39.30;;;;;;4995072;28;20043;-91
2022/08/10 10:14:15;;;;;;;2.75;1.63;;;37.80;38.90;;;;;;4987841;28;20049;-89
2022/08/10 10:17:00;;;;;;;3.42;1.60;;;37.90;37.30;;;;;;4983319;28;20061;-90
2022/08/10 10:19:27;;;;;;;4.65;1.60;;;37.50;37.20;;;;;;4998610;28;20027;-86
2022/08/10 10:22:20;;;;;;;2.00;1.20;;;37.20;37.60;;;;;;4978025;28;20038;-86
2022/08/10 10:24:59;;;;;;;4.03;1.90;;;36.30;38.30;;;;;;4993427;28;20031;-88
2022/08/10 10:27:46;;;;;;;3.45;1.60;;;35.10;38.50;;;;;;4978811;28;20038;-83
2022/08/10 10:30:15;;;;;;;3.33;1.35;;;34.80;40.60;;;;;;4975727;28;20045;-84
2022/08/10 10:32:44;;;;;;;2.95;1.23;;;34.50;41.00;;;;;;4975127;28;20027;-86
2022/08/10 10:35:35;;;;;;;3.00;1.30;;;33.80;41.10;;;;;;4975554;28;20097;-85
2022/08/10 10:38:03;;;;;;;3.15;1.42;;;33.20;41.20;;;;;;4976154;28;20450;-86
2022/08/10 10:41:08;;;;;;;4.28;2.08;;;33.20;41.10;;;;;;4976316;28;20097;-89
2022/08/10 10:44:22;;;;;;;6.70;1.35;;;32.70;41.50;;;;;;4938634;29;20321;-88
2022/08/10 10:47:06;;;;;;;3.85;1.60;;;32.00;42.20;;;;;;4948262;28;20049;-87
2022/08/10 10:49:58;;;;;;;2.65;1.60;;;32.20;43.40;;;;;;4994433;28;20038;-91
2022/08/10 10:52:32;;;;;;;5.65;1.75;;;32.40;42.90;;;;;;4973633;28;20042;-85
2022/08/10 10:55:24;;;;;;;3.58;1.58;;;32.10;43.10;;;;;;4976250;28;20034;-89
2022/08/10 10:58:10;;;;;;;4.55;1.35;;;31.80;43.60;;;;;;4973633;28;20409;-88
2022/08/10 11:00:54;;;;;;;6.25;1.85;;;31.70;44.10;;;;;;4975410;28;20046;-83
2022/08/10 11:03:23;;;;;;;3.72;1.35;;;31.70;45.10;;;;;;4975524;28;20113;-87
2022/08/10 11:06:17;;;;;;;9.30;1.85;;;31.80;44.20;;;;;;4990325;28;20373;-81
2022/08/10 11:08:51;;;;;;;11.65;2.35;;;31.60;43.90;;;;;;4990136;28;20473;-88
2022/08/10 11:11:29;;;;;;;3.78;1.55;;;31.60;44.40;;;;;;4977496;28;20031;-91
2022/08/10 11:13:58;;;;;;;6.72;2.20;;;31.40;44.20;;;;;;4978279;28;20425;-87
2022/08/10 11:16:34;;;;;;;2.90;1.55;;;31.30;44.10;;;;;;4990961;28;20492;-88
2022/08/10 11:19:02;;;;;;;2.72;1.52;;;31.20;44.60;;;;;;4976314;28;20039;-85
2022/08/10 11:21:40;;;;;;;2.42;1.40;;;31.20;44.50;;;;;;4976163;28;20062;-84
2022/08/10 11:24:13;;;;;;;4.40;1.45;;;31.20;44.50;;;;;;4993010;28;20031;-87
2022/08/10 11:26:50;;;;;;;2.00;1.40;;;31.00;43.50;;;;;;4976106;28;20035;-92
2022/08/10 11:29:42;;;;;;;6.90;1.25;;;30.90;43.40;;;;;;4977911;28;20022;-87
2022/08/10 11:32:16;;;;;;;4.57;1.23;;;30.80;42.60;;;;;;4976500;28;20043;-90
2022/08/10 11:35:07;;;;;;;2.08;1.40;;;30.60;42.20;;;;;;4977059;28;20039;-85
2022/08/10 11:37:40;;;;;;;4.30;1.20;;;30.60;43.60;;;;;;4991739;28;20070;-90
2022/08/10 11:40:14;;;;;;;3.22;1.35;;;30.70;44.20;;;;;;4975468;28;20035;-89
2022/08/10 11:43:18;;;;;;;6.35;1.20;;;30.80;43.60;;;;;;4976921;28;20058;-89
2022/08/10 11:46:07;;;;;;;2.63;0.93;;;30.60;43.70;;;;;;4975055;28;20058;-91
2022/08/10 11:48:46;;;;;;;5.43;3.70;;;30.60;43.20;;;;;;4976108;28;20126;-83
2022/08/10 11:51:25;;;;;;;4.35;2.67;;;30.50;43.90;;;;;;4974894;28;20147;-84
2022/08/10 11:54:06;;;;;;;6.75;1.60;;;30.40;43.70;;;;;;4973947;28;20026;-86
2022/08/10 11:56:53;;;;;;;1.38;1.10;;;30.40;43.70;;;;;;4971815;28;20066;-80
2022/08/10 12:02:10;;;;;;;1.98;1.10;;;30.30;44.70;;;;;;4957077;28;20038;-89
2022/08/10 12:04:39;;;;;;;4.15;1.38;;;30.30;44.90;;;;;;4957292;28;20016;-89
2022/08/10 12:07:07;;;;;;;2.83;1.48;;;30.30;45.20;;;;;;4957585;28;20047;-87
2022/08/10 12:09:34;;;;;;;;;;;30.30;46.60;;;;;;4955525;28;20038;-87
2022/08/10 12:12:00;;;;;;;3.97;1.27;;;30.40;45.20;;;;;;4955256;28;19914;-85
2022/08/10 12:14:44;;;;;;;3.58;1.90;;;30.30;44.80;;;;;;4955547;28;20024;-83
2022/08/10 12:17:25;;;;;;;4.50;1.20;;;30.30;45.00;;;;;;4956516;28;20023;-85
2022/08/10 12:20:05;;;;;;;11.25;4.60;;;30.30;45.10;;;;;;4958306;28;20051;-85
2022/08/10 12:22:40;;;;;;;4.63;1.63;;;30.10;45.40;;;;;;4955593;28;20050;-85
2022/08/10 12:25:13;;;;;;;2.85;1.30;;;30.00;44.80;;;;;;4956096;28;20099;-81
2022/08/10 12:27:49;;;;;;;5.97;1.50;;;30.00;45.20;;;;;;4954902;28;20484;-85
2022/08/10 12:30:21;;;;;;;3.97;1.33;;;29.90;45.90;;;;;;4937250;29;20072;-83
2022/08/10 12:32:53;;;;;;;4.38;1.42;;;29.90;46.20;;;;;;4954849;28;20038;-87
2022/08/10 12:35:34;;;;;;;1.40;1.17;;;30.00;45.50;;;;;;4962167;28;20353;-85
2022/08/10 12:38:20;;;;;;;5.07;1.60;;;30.00;45.60;;;;;;4967054;28;20117;-86
2022/08/10 12:40:56;;;;;;;2.63;1.25;;;30.10;45.40;;;;;;4954179;28;20070;-86
2022/08/10 12:43:38;;;;;;;4.35;1.30;;;30.10;44.80;;;;;;4970481;28;20028;-88
2022/08/10 12:46:13;;;;;;;5.70;1.52;;;29.80;45.70;;;;;;4954335;28;20031;-94
2022/08/10 12:49:01;;;;;;;2.10;1.20;;;29.90;45.90;;;;;;4954559;28;20462;-91
2022/08/10 12:51:30;;;;;;;3.45;1.35;;;29.80;45.00;;;;;;4969487;28;20039;-88
2022/08/10 12:54:19;;;;;;;6.22;1.40;;;29.80;45.60;;;;;;4954712;28;20036;-87
2022/08/10 12:56:48;;;;;;;4.40;1.52;;;29.70;46.50;;;;;;4952901;28;20049;-81
2022/08/10 12:59:16;;;;;;;2.75;1.33;;;29.80;46.70;;;;;;4953330;28;20031;-82
2022/08/10 13:01:42;;;;;;;;;;;29.80;46.80;;;;;;4954413;28;20689;-83
2022/08/10 13:04:15;;;;;;;2.30;1.73;;;29.70;46.30;;;;;;4953603;28;19938;-95
2022/08/10 13:06:46;;;;;;;2.78;1.30;;;29.60;47.90;;;;;;4952350;28;20028;-80
2022/08/10 13:09:21;;;;;;;3.78;1.65;;;29.70;46.70;;;;;;4954230;28;20073;-89
2022/08/10 13:11:55;;;;;;;3.88;1.27;;;29.80;45.90;;;;;;4953159;28;20055;-93
2022/08/10 13:14:32;;;;;;;3.80;1.75;;;29.70;46.60;;;;;;4953125;28;20102;-84
2022/08/10 13:17:00;;;;;;;3.08;1.27;;;29.70;47.00;;;;;;4953616;29;20024;-83
2022/08/10 13:19:32;;;;;;;4.32;2.05;;;29.70;48.10;;;;;;4952066;28;20066;-84
2022/08/10 13:22:01;;;;;;;5.78;1.35;;;29.60;46.80;;;;;;4952857;28;20529;-86